Time;durP1;ratioP1;P1;durP2;ratioP2;P2;SDS_P1;SDS_P2;PMS_P1;PMS_P2;Temp;Humidity;BMP_temperature;BMP_pressure;BME280_temperature;BME280_humidity;BME280_pressure;Samples;Min_cycle;Max_cycle;Signal;HPM_P1;HPM_P2
2023/10/21 00:01:41;;;;;;;0.97;0.90;;;;;;;11.90;100.00;95616.78;5096814;28;20233;-81
2023/10/21 00:04:08;;;;;;;1.03;0.90;;;;;;;12.03;100.00;95609.09;5097111;28;20239;-81
2023/10/21 00:06:35;;;;;;;1.10;1.00;;;;;;;12.06;100.00;95614.06;5097376;28;20206;-81
2023/10/21 00:09:01;;;;;;;2.03;0.80;;;;;;;12.22;100.00;95612.13;5097132;28;20213;-81
2023/10/21 00:11:29;;;;;;;1.10;1.00;;;;;;;12.26;100.00;95615.22;5097347;28;20804;-81
2023/10/21 00:13:57;;;;;;;1.00;0.80;;;;;;;12.35;100.00;95636.16;5097304;28;20214;-81
2023/10/21 00:16:23;;;;;;;0.97;0.80;;;;;;;12.43;100.00;95632.66;5097599;28;20211;-81
2023/10/21 00:18:50;;;;;;;0.90;0.67;;;;;;;12.54;100.00;95626.94;5097070;28;20578;-81
2023/10/21 00:21:17;;;;;;;0.97;0.80;;;;;;;12.63;100.00;95644.41;5096796;28;20238;-81
2023/10/21 00:23:43;;;;;;;1.20;0.80;;;;;;;12.74;100.00;95636.88;5097038;28;20224;-81
2023/10/21 00:26:10;;;;;;;1.00;0.70;;;;;;;12.82;100.00;95643.88;5079058;28;20214;-81
2023/10/21 00:28:38;;;;;;;0.90;0.80;;;;;;;12.81;100.00;95658.16;5097324;28;20203;-81
2023/10/21 00:31:04;;;;;;;0.80;0.80;;;;;;;12.88;100.00;95651.13;5097317;28;20266;-81
2023/10/21 00:33:31;;;;;;;0.67;0.60;;;;;;;12.91;100.00;95648.94;5095835;28;20584;-81
2023/10/21 00:35:57;;;;;;;1.57;0.80;;;;;;;13.04;100.00;95651.84;5096735;28;20215;-81
2023/10/21 00:38:24;;;;;;;0.70;0.67;;;;;;;13.13;100.00;95657.88;5096792;28;20209;-81
2023/10/21 00:40:51;;;;;;;0.60;0.60;;;;;;;13.21;100.00;95649.84;5096800;28;20223;-81
2023/10/21 00:43:32;;;;;;;0.67;0.63;;;;;;;13.31;100.00;95650.38;5095935;28;20645;-81
2023/10/21 00:46:02;;;;;;;0.60;0.50;;;;;;;13.34;100.00;95650.88;5096562;28;20729;-81
2023/10/21 00:48:29;;;;;;;1.33;0.57;;;;;;;13.28;100.00;95656.06;5078391;28;20232;-81
2023/10/21 00:50:56;;;;;;;0.83;0.57;;;;;;;13.36;100.00;95669.22;5096457;28;20230;-81
2023/10/21 00:53:23;;;;;;;0.60;0.43;;;;;;;13.34;100.00;95673.91;5096054;28;20229;-81
2023/10/21 00:55:51;;;;;;;1.27;0.60;;;;;;;13.30;100.00;95676.09;5096844;28;20592;-83
2023/10/21 00:58:18;;;;;;;0.50;0.50;;;;;;;13.21;100.00;95679.03;5096578;28;20252;-81
2023/10/21 01:00:44;;;;;;;0.97;0.60;;;;;;;13.13;100.00;95668.47;5095912;28;20213;-81
2023/10/21 01:03:12;;;;;;;0.60;0.60;;;;;;;13.13;100.00;95665.81;5096334;28;20211;-81
2023/10/21 01:05:38;;;;;;;0.50;0.50;;;;;;;13.07;100.00;95671.88;5096122;28;20249;-81
2023/10/21 01:08:05;;;;;;;1.13;0.50;;;;;;;13.06;100.00;95691.41;5096178;28;20211;-81
2023/10/21 01:10:32;;;;;;;0.67;0.40;;;;;;;13.12;100.00;95690.69;5096227;28;20218;-81
2023/10/21 01:12:58;;;;;;;0.50;0.50;;;;;;;13.06;100.00;95694.06;5095270;28;20204;-81
2023/10/21 01:15:25;;;;;;;0.40;0.40;;;;;;;13.06;100.00;95699.38;5095927;28;20694;-81
2023/10/21 01:17:51;;;;;;;0.40;0.40;;;;;;;13.08;100.00;95723.91;5096516;28;20692;-81
2023/10/21 01:20:19;;;;;;;0.70;0.60;;;;;;;13.01;100.00;95720.31;5096175;28;20211;-81
2023/10/21 01:22:46;;;;;;;0.43;0.40;;;;;;;12.99;100.00;95730.25;5095342;28;20241;-83
2023/10/21 01:25:13;;;;;;;0.40;0.40;;;;;;;13.05;100.00;95740.16;5095964;28;20202;-83
2023/10/21 01:27:40;;;;;;;3.47;0.60;;;;;;;13.17;100.00;95741.38;5096031;28;20670;-82
2023/10/21 01:30:07;;;;;;;0.60;0.50;;;;;;;13.12;100.00;95751.69;5096343;28;20215;-83
2023/10/21 01:32:34;;;;;;;0.40;0.40;;;;;;;13.14;100.00;95757.66;5095389;28;20230;-81
2023/10/21 01:35:00;;;;;;;1.10;0.40;;;;;;;13.18;100.00;95756.28;5095550;28;20218;-81
2023/10/21 01:37:27;;;;;;;0.50;0.40;;;;;;;13.26;100.00;95769.50;5095621;28;20500;-82
2023/10/21 01:39:55;;;;;;;0.40;0.40;;;;;;;13.31;100.00;95777.72;5095438;28;20581;-81
2023/10/21 01:42:23;;;;;;;0.40;0.40;;;;;;;13.32;100.00;95779.38;5094901;28;20278;-81
2023/10/21 01:44:49;;;;;;;0.60;0.40;;;;;;;13.40;100.00;95774.81;5094184;28;20681;-81
2023/10/21 01:47:16;;;;;;;0.40;0.40;;;;;;;13.45;100.00;95779.59;5095994;28;20210;-81
2023/10/21 01:49:42;;;;;;;0.60;0.50;;;;;;;13.46;100.00;95781.22;5095924;28;20207;-79
2023/10/21 01:52:09;;;;;;;0.50;0.40;;;;;;;13.49;100.00;95776.38;5094652;28;20223;-81
2023/10/21 01:54:35;;;;;;;0.30;0.30;;;;;;;13.49;100.00;95786.16;5095127;28;20697;-81
2023/10/21 01:57:02;;;;;;;1.17;0.50;;;;;;;13.52;100.00;95797.22;5095741;28;20677;-81
2023/10/21 01:59:30;;;;;;;0.30;0.30;;;;;;;13.48;100.00;95806.59;5095267;28;20240;-82
2023/10/21 02:01:56;;;;;;;0.30;0.30;;;;;;;13.46;100.00;95810.41;5094528;28;20264;-81
2023/10/21 02:04:23;;;;;;;0.83;0.20;;;;;;;13.52;100.00;95828.28;5095052;28;20538;-81
2023/10/21 02:06:49;;;;;;;0.43;0.43;;;;;;;13.51;100.00;95816.81;5095408;28;20578;-82
2023/10/21 02:09:17;;;;;;;0.30;0.30;;;;;;;13.52;100.00;95826.44;5095408;28;20230;-82
2023/10/21 02:11:43;;;;;;;0.30;0.30;;;;;;;13.42;100.00;95833.00;5094803;28;20224;-81
2023/10/21 02:14:10;;;;;;;0.40;0.40;;;;;;;13.34;100.00;95836.56;5094771;28;20203;-81
2023/10/21 02:16:38;;;;;;;0.30;0.30;;;;;;;13.34;100.00;95830.41;5095622;28;20211;-81
2023/10/21 02:19:04;;;;;;;0.30;0.30;;;;;;;13.18;100.00;95847.28;5094835;28;20215;-81
2023/10/21 02:21:31;;;;;;;0.30;0.27;;;;;;;13.18;100.00;95854.41;5095014;28;20319;-81
2023/10/21 02:23:57;;;;;;;2.10;0.40;;;;;;;13.20;100.00;95865.69;5094867;28;20207;-81
2023/10/21 02:26:24;;;;;;;0.93;0.30;;;;;;;13.20;100.00;95863.03;5094624;28;20335;-81
2023/10/21 02:28:50;;;;;;;0.60;0.60;;;;;;;13.22;100.00;95868.97;5095088;28;20306;-81
2023/10/21 02:31:17;;;;;;;0.50;0.50;;;;;;;13.23;100.00;95860.84;5094852;28;20237;-81
2023/10/21 02:33:45;;;;;;;1.53;0.20;;;;;;;13.20;100.00;95873.63;5094623;28;20206;-81
2023/10/21 02:36:11;;;;;;;1.70;0.33;;;;;;;13.18;100.00;95863.19;5095103;28;20213;-81
2023/10/21 02:38:38;;;;;;;0.97;0.30;;;;;;;13.09;100.00;95876.69;5095389;28;20677;-81
2023/10/21 02:41:05;;;;;;;0.30;0.30;;;;;;;13.04;100.00;95879.88;5095207;28;20697;-81
2023/10/21 02:43:31;;;;;;;2.03;0.40;;;;;;;13.03;100.00;95880.84;5094359;28;20227;-81
2023/10/21 02:46:07;;;;;;;0.30;0.23;;;;;;;12.96;100.00;95885.22;5095232;28;20219;-82
2023/10/21 02:48:33;;;;;;;0.30;0.30;;;;;;;12.89;100.00;95894.81;5095276;28;20212;-81
2023/10/21 02:51:09;;;;;;;0.27;0.27;;;;;;;12.80;100.00;95910.94;5094917;28;20598;-81
2023/10/21 02:53:36;;;;;;;0.67;0.40;;;;;;;12.73;100.00;95910.00;5094444;28;20663;-81
2023/10/21 02:56:05;;;;;;;0.33;0.33;;;;;;;12.61;100.00;95914.84;5095344;28;20213;-81
2023/10/21 02:58:31;;;;;;;0.83;0.40;;;;;;;12.59;100.00;95914.19;5095077;28;20218;-81
2023/10/21 03:00:58;;;;;;;0.33;0.33;;;;;;;12.52;100.00;95915.03;5094910;28;20310;-81
2023/10/21 03:03:25;;;;;;;0.60;0.40;;;;;;;12.45;100.00;95929.97;5094386;28;20206;-81
2023/10/21 03:05:52;;;;;;;0.77;0.33;;;;;;;12.36;100.00;95936.28;5095394;28;20227;-81
2023/10/21 03:08:20;;;;;;;0.40;0.40;;;;;;;12.29;100.00;95935.31;5095030;28;20215;-81
2023/10/21 03:10:48;;;;;;;3.37;0.60;;;;;;;12.27;100.00;95953.19;5094687;28;20207;-81
2023/10/21 03:13:14;;;;;;;0.50;0.40;;;;;;;12.18;100.00;95943.63;5094503;28;20207;-81
2023/10/21 03:15:40;;;;;;;0.40;0.40;;;;;;;12.18;100.00;95947.06;5095451;28;20221;-81
2023/10/21 03:18:07;;;;;;;0.50;0.50;;;;;;;12.24;100.00;95951.69;5094923;28;20203;-82
2023/10/21 03:20:33;;;;;;;0.80;0.53;;;;;;;12.21;100.00;95951.22;5095155;28;20207;-82
2023/10/21 03:23:00;;;;;;;0.50;0.50;;;;;;;12.14;100.00;95951.06;5095473;28;20223;-81
2023/10/21 03:25:28;;;;;;;0.40;0.40;;;;;;;12.11;100.00;95963.81;5097708;28;20268;-81
2023/10/21 03:27:54;;;;;;;0.40;0.40;;;;;;;12.04;100.00;95960.19;5096309;28;20215;-81
2023/10/21 03:30:21;;;;;;;0.87;0.50;;;;;;;12.08;100.00;95956.19;5093698;28;20207;-81
2023/10/21 03:32:48;;;;;;;0.40;0.40;;;;;;;12.10;100.00;95959.53;5092467;28;20317;-81
2023/10/21 03:35:14;;;;;;;1.40;0.40;;;;;;;12.09;100.00;95964.00;5093435;28;20210;-81
2023/10/21 03:37:41;;;;;;;0.30;0.30;;;;;;;12.10;100.00;95978.88;5093503;28;20213;-81
2023/10/21 03:40:10;;;;;;;0.30;0.30;;;;;;;12.08;100.00;95988.81;5093882;28;20301;-81
2023/10/21 03:42:38;;;;;;;1.03;0.30;;;;;;;12.06;100.00;95992.63;5092879;28;20321;-81
2023/10/21 03:45:07;;;;;;;0.60;0.30;;;;;;;12.04;100.00;95986.66;5093660;28;20206;-81
2023/10/21 03:47:34;;;;;;;0.77;0.40;;;;;;;12.04;100.00;95987.47;5093967;28;20272;-81
2023/10/21 03:50:01;;;;;;;1.40;0.40;;;;;;;12.04;100.00;95991.97;5093536;28;20214;-81
2023/10/21 03:52:27;;;;;;;0.40;0.40;;;;;;;12.05;100.00;95996.25;5093020;28;20659;-81
2023/10/21 03:54:54;;;;;;;0.30;0.30;;;;;;;11.96;100.00;95991.94;5093507;28;20208;-81
2023/10/21 03:57:21;;;;;;;0.47;0.33;;;;;;;11.90;100.00;95990.81;5093196;28;20209;-81
2023/10/21 03:59:49;;;;;;;0.30;0.30;;;;;;;11.80;100.00;95995.44;5093104;28;20247;-81
2023/10/21 04:02:16;;;;;;;0.50;0.50;;;;;;;11.75;100.00;96004.88;5092559;28;20740;-81
2023/10/21 04:04:43;;;;;;;0.47;0.33;;;;;;;11.77;100.00;96002.88;5093939;28;20681;-81
2023/10/21 04:07:09;;;;;;;0.50;0.40;;;;;;;11.77;100.00;96002.88;5094533;28;20210;-81
2023/10/21 04:09:36;;;;;;;0.30;0.30;;;;;;;11.77;100.00;96010.81;5097535;28;20214;-81
2023/10/21 04:12:02;;;;;;;0.73;0.60;;;;;;;11.83;100.00;96013.63;5096492;28;20229;-81
2023/10/21 04:14:29;;;;;;;1.27;0.70;;;;;;;11.83;100.00;96021.56;5096905;28;20205;-81
2023/10/21 04:16:57;;;;;;;0.77;0.60;;;;;;;11.85;100.00;96026.69;5096953;28;20218;-81
2023/10/21 04:19:24;;;;;;;0.73;0.57;;;;;;;11.85;100.00;96031.97;5096968;28;20210;-81
2023/10/21 04:21:51;;;;;;;0.40;0.40;;;;;;;11.91;100.00;96026.03;5097327;28;20231;-81
2023/10/21 04:24:17;;;;;;;0.40;0.40;;;;;;;11.94;100.00;96028.34;5096789;28;20222;-81
2023/10/21 04:26:44;;;;;;;0.50;0.40;;;;;;;11.97;100.00;96030.66;5097276;28;20640;-81
2023/10/21 04:29:10;;;;;;;0.47;0.47;;;;;;;12.05;100.00;96038.63;5097319;28;20206;-81
2023/10/21 04:31:38;;;;;;;0.50;0.50;;;;;;;12.09;100.00;96043.41;5097418;28;20234;-81
2023/10/21 04:34:06;;;;;;;0.63;0.37;;;;;;;12.18;100.00;96046.88;5097007;28;20366;-81
2023/10/21 04:36:32;;;;;;;0.40;0.40;;;;;;;12.19;100.00;96048.53;5097018;28;20211;-81
2023/10/21 04:38:59;;;;;;;1.07;0.50;;;;;;;12.22;100.00;96058.81;5097017;28;20218;-81
2023/10/21 04:41:25;;;;;;;0.30;0.30;;;;;;;12.26;100.00;96063.59;5096180;28;20241;-81
2023/10/21 04:43:52;;;;;;;0.50;0.50;;;;;;;12.21;100.00;96057.97;5096409;28;20236;-81
2023/10/21 04:46:18;;;;;;;0.50;0.30;;;;;;;12.19;100.00;96069.72;5096763;28;20209;-81
2023/10/21 04:48:45;;;;;;;0.50;0.40;;;;;;;12.14;100.00;96061.44;5096493;28;20207;-81
2023/10/21 04:51:13;;;;;;;0.50;0.43;;;;;;;12.14;100.00;96072.03;5096695;28;20241;-81
2023/10/21 04:53:39;;;;;;;0.87;0.40;;;;;;;12.24;100.00;96078.00;5096163;28;20203;-81
2023/10/21 04:56:06;;;;;;;0.77;0.33;;;;;;;12.28;100.00;96076.69;5078840;28;20218;-81
2023/10/21 04:58:32;;;;;;;0.50;0.50;;;;;;;12.30;100.00;96072.03;5097424;28;20551;-81
2023/10/21 05:00:59;;;;;;;0.40;0.30;;;;;;;12.38;100.00;96077.31;5096817;28;20232;-81
2023/10/21 05:03:25;;;;;;;0.80;0.47;;;;;;;12.39;100.00;96079.81;5096207;28;20232;-81
2023/10/21 05:05:52;;;;;;;0.67;0.40;;;;;;;12.40;100.00;96088.59;5096481;28;20215;-81
2023/10/21 05:08:19;;;;;;;0.30;0.30;;;;;;;12.34;100.00;96097.22;5096704;28;20217;-81
2023/10/21 05:10:46;;;;;;;0.30;0.30;;;;;;;12.39;100.00;96102.81;5096346;28;20302;-81
2023/10/21 05:13:13;;;;;;;0.40;0.40;;;;;;;12.32;100.00;96107.13;5095886;28;20211;-81
2023/10/21 05:15:40;;;;;;;1.37;0.50;;;;;;;12.29;100.00;96110.13;5096301;28;20218;-81
2023/10/21 05:18:07;;;;;;;0.50;0.40;;;;;;;12.30;100.00;96119.72;5096669;28;20230;-81
2023/10/21 05:20:33;;;;;;;0.30;0.30;;;;;;;12.32;100.00;96117.72;5095092;28;20233;-83
2023/10/21 05:23:00;;;;;;;1.70;0.50;;;;;;;12.31;100.00;96127.50;5095432;28;20226;-81
2023/10/21 05:25:28;;;;;;;0.90;0.37;;;;;;;12.32;100.00;96130.97;5096315;28;20616;-82
2023/10/21 05:27:54;;;;;;;0.80;0.50;;;;;;;12.37;100.00;96137.44;5095901;28;20212;-82
2023/10/21 05:30:21;;;;;;;0.57;0.40;;;;;;;12.39;100.00;96139.91;5096776;28;20202;-82
2023/10/21 05:32:47;;;;;;;0.70;0.50;;;;;;;12.35;100.00;96149.19;5095016;28;20709;-81
2023/10/21 05:35:14;;;;;;;0.63;0.43;;;;;;;12.39;100.00;96161.09;5095402;28;20589;-81
2023/10/21 05:37:40;;;;;;;0.63;0.40;;;;;;;12.41;100.00;96169.72;5096420;28;20330;-82
2023/10/21 05:40:09;;;;;;;0.63;0.50;;;;;;;12.37;100.00;96173.69;5077340;28;20683;-82
2023/10/21 05:42:37;;;;;;;0.80;0.50;;;;;;;12.37;100.00;96173.69;5095350;28;20275;-83
2023/10/21 05:45:04;;;;;;;1.17;0.40;;;;;;;12.47;100.00;96179.66;5096526;28;20533;-83
2023/10/21 05:47:31;;;;;;;0.50;0.50;;;;;;;12.55;100.00;96182.31;5095825;28;20715;-83
2023/10/21 05:49:58;;;;;;;0.60;0.43;;;;;;;12.69;100.00;96181.63;5095652;28;20218;-82
2023/10/21 05:52:24;;;;;;;0.50;0.50;;;;;;;12.72;100.00;96194.56;5094454;28;20236;-82
2023/10/21 05:54:51;;;;;;;2.00;0.50;;;;;;;12.74;100.00;96197.88;5094536;28;20214;-82
2023/10/21 05:57:17;;;;;;;0.67;0.43;;;;;;;12.72;100.00;96199.88;5095527;28;20215;-82
2023/10/21 05:59:45;;;;;;;0.40;0.40;;;;;;;12.68;100.00;96203.84;5096361;28;20437;-81
2023/10/21 06:02:13;;;;;;;0.50;0.40;;;;;;;12.63;100.00;96212.28;5094948;28;20237;-82
2023/10/21 06:04:39;;;;;;;1.27;0.50;;;;;;;12.50;100.00;96217.25;5095133;28;20693;-82
2023/10/21 06:07:06;;;;;;;1.67;0.47;;;;;;;12.42;100.00;96224.38;5094995;28;20207;-80
2023/10/21 06:09:33;;;;;;;0.43;0.30;;;;;;;12.34;100.00;96232.31;5094409;28;20202;-80
2023/10/21 06:12:00;;;;;;;0.50;0.40;;;;;;;12.34;100.00;96232.31;5096500;28;20601;-80
2023/10/21 06:14:26;;;;;;;1.07;0.57;;;;;;;12.34;100.00;96227.00;5095724;28;20273;-79
2023/10/21 06:16:54;;;;;;;0.73;0.40;;;;;;;12.32;100.00;96239.56;5096622;28;20208;-80
2023/10/21 06:19:21;;;;;;;0.63;0.40;;;;;;;12.34;100.00;96237.59;5096767;28;20211;-84
2023/10/21 06:21:47;;;;;;;0.73;0.50;;;;;;;12.37;100.00;96247.84;5097134;28;20586;-83
2023/10/21 06:24:14;;;;;;;0.40;0.40;;;;;;;12.42;100.00;96250.84;5096299;28;20603;-83
2023/10/21 06:26:40;;;;;;;1.13;0.43;;;;;;;12.39;100.00;96262.59;5096858;28;20217;-83
2023/10/21 06:29:08;;;;;;;1.90;0.60;;;;;;;12.38;100.00;96263.59;5097166;28;20298;-83
2023/10/21 06:31:35;;;;;;;0.63;0.50;;;;;;;12.43;100.00;96273.69;5096122;28;20325;-83
2023/10/21 06:34:03;;;;;;;0.60;0.50;;;;;;;12.41;100.00;96275.69;5096540;28;20212;-83
2023/10/21 06:36:29;;;;;;;0.50;0.50;;;;;;;12.44;100.00;96280.66;5097038;28;20214;-83
2023/10/21 06:38:57;;;;;;;0.50;0.50;;;;;;;12.48;100.00;96282.81;5097213;28;20214;-83
2023/10/21 06:41:24;;;;;;;0.40;0.40;;;;;;;12.52;100.00;96288.59;5079330;28;20238;-83
2023/10/21 06:43:51;;;;;;;0.50;0.50;;;;;;;12.56;100.00;96295.25;5097047;28;20744;-83
2023/10/21 06:46:19;;;;;;;1.40;0.67;;;;;;;12.51;100.00;96302.84;5096961;28;20210;-83
2023/10/21 06:48:45;;;;;;;0.50;0.50;;;;;;;12.49;100.00;96302.19;5096619;28;20210;-83
2023/10/21 06:51:14;;;;;;;1.47;0.60;;;;;;;12.51;100.00;96316.09;5097733;28;20227;-83
2023/10/21 06:53:40;;;;;;;0.40;0.40;;;;;;;12.48;100.00;96319.09;5096628;28;20202;-82
2023/10/21 06:56:10;;;;;;;0.60;0.50;;;;;;;12.43;100.00;96327.53;5096855;28;20215;-83
2023/10/21 06:58:37;;;;;;;0.77;0.43;;;;;;;12.42;100.00;96332.97;5096382;28;20208;-82
2023/10/21 07:01:03;;;;;;;0.60;0.60;;;;;;;12.40;100.00;96337.63;5097183;28;20560;-82
2023/10/21 07:03:30;;;;;;;0.83;0.60;;;;;;;12.43;100.00;96337.28;5096850;28;20217;-82
2023/10/21 07:05:56;;;;;;;0.63;0.50;;;;;;;12.50;100.00;96343.59;5097005;28;20207;-82
2023/10/21 07:08:24;;;;;;;0.77;0.50;;;;;;;12.52;100.00;96347.75;5096942;28;20221;-82
2023/10/21 07:10:52;;;;;;;0.50;0.50;;;;;;;12.56;100.00;96359.69;5097511;28;20254;-82
2023/10/21 07:13:19;;;;;;;0.50;0.50;;;;;;;12.63;100.00;96354.56;5096491;28;20207;-82
2023/10/21 07:15:47;;;;;;;0.50;0.50;;;;;;;12.68;100.00;96363.69;5098301;28;20226;-82
2023/10/21 07:18:14;;;;;;;0.60;0.47;;;;;;;12.78;100.00;96369.69;5100345;28;20696;-82
2023/10/21 07:20:40;;;;;;;0.40;0.40;;;;;;;12.84;100.00;96378.81;5101085;28;20240;-82
2023/10/21 07:23:08;;;;;;;1.37;0.57;;;;;;;12.90;100.00;96378.16;5095939;28;20229;-82
2023/10/21 07:25:36;;;;;;;1.17;0.50;;;;;;;13.07;100.00;96375.41;5094162;28;20692;-82
2023/10/21 07:28:03;;;;;;;0.40;0.40;;;;;;;13.20;100.00;96374.94;5094597;28;20265;-82
2023/10/21 07:30:30;;;;;;;0.53;0.47;;;;;;;13.32;100.00;96374.44;5093999;28;20677;-82
2023/10/21 07:32:56;;;;;;;0.30;0.30;;;;;;;13.38;100.00;96380.91;5093367;28;20212;-82
2023/10/21 07:35:23;;;;;;;1.07;0.40;;;;;;;13.45;100.00;96384.56;5094740;28;20198;-82
2023/10/21 07:37:49;;;;;;;0.47;0.40;;;;;;;13.44;100.00;96381.06;5094647;28;20213;-84
2023/10/21 07:40:16;;;;;;;0.50;0.50;;;;;;;13.58;100.00;96388.34;5094069;28;20567;-84
2023/10/21 07:42:44;;;;;;;0.60;0.40;;;;;;;13.63;100.00;96393.19;5094771;28;20231;-82
2023/10/21 07:45:14;;;;;;;0.30;0.30;;;;;;;13.74;100.00;96406.13;5097710;28;20246;-82
2023/10/21 07:47:41;;;;;;;0.63;0.37;;;;;;;13.84;100.00;96412.06;5098324;28;20225;-82
2023/10/21 07:50:08;;;;;;;0.37;0.37;;;;;;;14.04;100.00;96419.53;5099063;28;20215;-83
2023/10/21 07:52:36;;;;;;;0.77;0.40;;;;;;;14.29;100.00;96418.50;5097912;28;20231;-82
2023/10/21 07:55:03;;;;;;;0.47;0.40;;;;;;;14.54;100.00;96406.00;5099007;28;20203;-82
2023/10/21 07:57:30;;;;;;;0.43;0.40;;;;;;;14.75;100.00;96424.84;5098498;28;20203;-83
2023/10/21 07:59:58;;;;;;;0.30;0.30;;;;;;;14.89;100.00;96426.75;5098294;28;20234;-82
2023/10/21 08:02:25;;;;;;;0.30;0.30;;;;;;;14.87;100.00;96423.44;5098325;28;20706;-83
2023/10/21 08:04:52;;;;;;;1.07;0.30;;;;;;;14.82;100.00;96433.78;5098498;28;20225;-82
2023/10/21 08:07:19;;;;;;;1.70;0.40;;;;;;;14.76;100.00;96434.47;5099072;28;20646;-83
2023/10/21 08:09:45;;;;;;;0.30;0.30;;;;;;;14.72;100.00;96435.84;5099923;28;20687;-83
2023/10/21 08:12:12;;;;;;;0.50;0.50;;;;;;;14.66;100.00;96447.16;5099038;28;20225;-83
2023/10/21 08:14:40;;;;;;;0.77;0.60;;;;;;;14.69;100.00;96455.63;5099039;28;20205;-83
2023/10/21 08:17:08;;;;;;;1.33;0.60;;;;;;;14.68;100.00;96453.13;5098795;28;20213;-83
2023/10/21 08:19:36;;;;;;;0.93;0.83;;;;;;;14.80;100.00;96451.75;5098083;28;20244;-83
2023/10/21 08:22:03;;;;;;;0.40;0.40;;;;;;;14.80;100.00;96438.44;5097368;28;20521;-83
2023/10/21 08:24:31;;;;;;;0.20;0.20;;;;;;;14.82;100.00;96447.91;5097517;28;20224;-83
2023/10/21 08:26:59;;;;;;;0.40;0.40;;;;;;;14.83;100.00;96443.41;5098512;28;20253;-83
2023/10/21 08:29:25;;;;;;;1.47;0.60;;;;;;;14.88;100.00;96459.69;5098933;28;20496;-83
2023/10/21 08:31:52;;;;;;;0.63;0.50;;;;;;;14.89;100.00;96469.31;5098446;28;20229;-83
2023/10/21 08:34:20;;;;;;;0.40;0.40;;;;;;;14.95;100.00;96452.66;5096937;28;20614;-83
2023/10/21 08:36:46;;;;;;;0.23;0.23;;;;;;;15.07;99.28;96451.28;5098170;28;20304;-82
2023/10/21 08:39:13;;;;;;;0.87;0.50;;;;;;;15.17;97.50;96457.22;5097941;28;20209;-83
2023/10/21 08:41:40;;;;;;;0.43;0.30;;;;;;;15.14;98.89;96468.19;5097405;28;20339;-83
2023/10/21 08:44:08;;;;;;;0.30;0.27;;;;;;;15.18;100.00;96472.19;5097678;28;20224;-84
2023/10/21 08:46:35;;;;;;;0.30;0.30;;;;;;;15.22;99.96;96471.66;5098704;28;20209;-83
2023/10/21 08:49:04;;;;;;;0.57;0.33;;;;;;;15.26;97.95;96466.81;5097967;28;20471;-83
2023/10/21 08:51:33;;;;;;;0.43;0.37;;;;;;;15.30;97.09;96473.44;5098812;28;20234;-83
2023/10/21 08:54:03;;;;;;;0.50;0.30;;;;;;;15.38;96.63;96476.09;5099352;28;20272;-83
2023/10/21 08:56:29;;;;;;;0.60;0.30;;;;;;;15.46;95.46;96476.06;5099956;28;20205;-83
2023/10/21 08:58:56;;;;;;;0.83;0.30;;;;;;;15.54;93.03;96476.00;5100466;28;20209;-83
2023/10/21 09:01:24;;;;;;;0.80;0.30;;;;;;;15.56;92.95;96479.31;5100014;28;20638;-82
2023/10/21 09:03:50;;;;;;;0.30;0.30;;;;;;;15.65;92.53;96483.59;5100316;28;20217;-83
2023/10/21 09:06:18;;;;;;;0.57;0.30;;;;;;;15.66;91.87;96488.75;5101033;28;20214;-83
2023/10/21 09:08:48;;;;;;;0.30;0.30;;;;;;;15.70;90.76;96487.34;5100216;28;20559;-83
2023/10/21 09:11:18;;;;;;;0.60;0.30;;;;;;;15.69;91.44;96495.53;5100398;28;20222;-83
2023/10/21 09:13:45;;;;;;;0.33;0.33;;;;;;;15.62;90.60;96506.06;5099423;28;20221;-83
2023/10/21 09:16:23;;;;;;;0.77;0.30;;;;;;;15.58;92.30;96519.91;5099387;28;20601;-83
2023/10/21 09:18:58;;;;;;;0.50;0.30;;;;;;;15.73;91.06;96518.16;5098741;28;20243;-83
2023/10/21 09:21:33;;;;;;;0.40;0.40;;;;;;;15.84;87.97;96515.06;5099278;28;20228;-83
2023/10/21 09:24:01;;;;;;;0.60;0.40;;;;;;;15.96;87.73;96524.31;5098569;28;20278;-83
2023/10/21 09:26:32;;;;;;;0.80;0.50;;;;;;;16.04;87.99;96533.91;5101137;28;20210;-83
2023/10/21 09:29:08;;;;;;;0.50;0.30;;;;;;;16.17;86.51;96535.97;5100370;28;20214;-83
2023/10/21 09:31:42;;;;;;;0.97;0.40;;;;;;;16.20;86.75;96523.13;5100474;28;20297;-83
2023/10/21 09:34:09;;;;;;;0.43;0.40;;;;;;;16.26;86.21;96533.06;5100360;28;20214;-83
2023/10/21 09:36:40;;;;;;;0.33;0.30;;;;;;;16.20;85.88;96533.78;5100138;28;20215;-83
2023/10/21 09:39:08;;;;;;;0.97;0.30;;;;;;;16.18;87.27;96546.47;5100139;28;20207;-83
2023/10/21 09:41:36;;;;;;;0.83;0.40;;;;;;;16.23;87.86;96544.09;5100746;28;20229;-83
2023/10/21 09:44:03;;;;;;;0.47;0.40;;;;;;;16.33;85.13;96533.19;5099749;28;20275;-83
2023/10/21 09:46:31;;;;;;;0.53;0.30;;;;;;;16.31;85.27;96529.84;5100958;28;20668;-83
2023/10/21 09:49:01;;;;;;;0.67;0.50;;;;;;;16.22;84.15;96529.09;5100479;28;20388;-83
2023/10/21 09:51:31;;;;;;;2.03;0.80;;;;;;;16.30;84.41;96529.03;5099950;28;20603;-83
2023/10/21 09:54:01;;;;;;;1.60;0.77;;;;;;;16.41;86.67;96541.94;5099492;28;20270;-83
2023/10/21 09:56:30;;;;;;;0.97;0.73;;;;;;;16.34;85.95;96542.84;5100922;28;20301;-84
2023/10/21 09:58:58;;;;;;;0.70;0.50;;;;;;;16.32;84.49;96532.34;5100402;28;20697;-83
2023/10/21 10:01:25;;;;;;;0.57;0.40;;;;;;;16.34;82.39;96522.31;5099551;28;20261;-83
2023/10/21 10:03:52;;;;;;;1.60;0.50;;;;;;;16.26;83.60;96537.56;5099095;28;20535;-83
2023/10/21 10:06:20;;;;;;;0.33;0.33;;;;;;;16.22;83.31;96539.75;5099093;28;20230;-84
2023/10/21 10:08:48;;;;;;;0.30;0.30;;;;;;;16.24;82.80;96545.75;5100645;28;20234;-84
2023/10/21 10:11:18;;;;;;;1.30;0.40;;;;;;;16.28;83.11;96543.56;5099508;28;20712;-83
2023/10/21 10:13:48;;;;;;;0.97;0.43;;;;;;;16.48;81.38;96532.25;5099567;28;20206;-82
2023/10/21 10:16:22;;;;;;;0.80;0.40;;;;;;;16.67;79.33;96525.53;5099801;28;20432;-83
2023/10/21 10:18:50;;;;;;;0.63;0.57;;;;;;;16.76;79.88;96525.28;5099005;28;20213;-84
2023/10/21 10:21:17;;;;;;;0.30;0.30;;;;;;;16.80;78.95;96515.91;5098088;28;20226;-82
2023/10/21 10:23:50;;;;;;;0.40;0.40;;;;;;;16.86;75.54;96503.66;5098682;28;20638;-83
2023/10/21 10:26:17;;;;;;;0.87;0.40;;;;;;;16.88;75.71;96518.47;5100047;28;20287;-83
2023/10/21 10:28:43;;;;;;;0.77;0.30;;;;;;;16.85;76.90;96521.53;5109670;28;20363;-82
2023/10/21 10:31:12;;;;;;;0.43;0.33;;;;;;;16.82;78.10;96524.53;5102549;28;20234;-82
2023/10/21 10:33:40;;;;;;;1.13;0.40;;;;;;;16.93;78.45;96516.09;5107267;28;20227;-82
2023/10/21 10:36:09;;;;;;;0.63;0.30;;;;;;;16.97;78.07;96522.72;5109061;28;20210;-82
2023/10/21 10:38:44;;;;;;;2.93;0.60;;;;;;;17.09;77.64;96521.25;5102366;28;20240;-82
2023/10/21 10:41:15;;;;;;;0.33;0.30;;;;;;;17.13;76.55;96522.53;5100031;28;20743;-82
2023/10/21 10:43:44;;;;;;;0.93;0.33;;;;;;;17.06;73.86;96515.47;5100141;28;20202;-83
2023/10/21 10:46:17;;;;;;;0.20;0.20;;;;;;;16.95;72.35;96514.06;5100082;28;20246;-83
2023/10/21 10:48:43;;;;;;;0.40;0.40;;;;;;;16.91;72.99;96509.28;5100081;28;20217;-83
2023/10/21 10:51:13;;;;;;;0.47;0.30;;;;;;;16.92;73.04;96525.13;5100295;28;20616;-83
2023/10/21 10:53:40;;;;;;;0.57;0.40;;;;;;;16.90;74.38;96521.81;5099733;28;20681;-82
2023/10/21 10:56:09;;;;;;;1.70;0.57;;;;;;;16.92;75.08;96530.44;5101240;28;20226;-83
2023/10/21 10:58:36;;;;;;;0.40;0.40;;;;;;;16.96;74.28;96531.72;5101604;28;20214;-83
2023/10/21 11:01:07;;;;;;;0.73;0.40;;;;;;;17.07;72.84;96525.13;5100529;28;20753;-82
2023/10/21 11:03:36;;;;;;;0.43;0.40;;;;;;;17.10;72.29;96527.41;5099776;28;20215;-83
2023/10/21 11:06:04;;;;;;;0.30;0.30;;;;;;;17.16;71.52;96532.00;5100276;28;20257;-83
2023/10/21 11:08:31;;;;;;;0.60;0.33;;;;;;;17.28;70.99;96525.19;5098243;28;20284;-83
2023/10/21 11:11:04;;;;;;;0.40;0.30;;;;;;;17.32;70.53;96531.81;5100393;28;20257;-83
2023/10/21 11:13:31;;;;;;;0.47;0.40;;;;;;;17.31;68.62;96520.28;5101342;28;20210;-83
2023/10/21 11:15:58;;;;;;;0.77;0.37;;;;;;;17.33;70.11;96522.78;5100660;28;20699;-84
2023/10/21 11:18:26;;;;;;;0.40;0.40;;;;;;;17.41;71.28;96531.56;5101444;28;20210;-82
2023/10/21 11:20:54;;;;;;;1.43;0.40;;;;;;;17.50;70.20;96519.75;5100520;28;20223;-82
2023/10/21 11:23:23;;;;;;;1.70;0.60;;;;;;;17.58;70.37;96526.81;5099955;28;20210;-82
2023/10/21 11:25:52;;;;;;;0.93;0.50;;;;;;;17.67;71.50;96550.56;5100951;28;20230;-83
2023/10/21 11:28:19;;;;;;;1.43;0.60;;;;;;;17.85;69.61;96537.63;5096840;28;20210;-83